sensor_id;sensor_type;location;lat;lon;timestamp;P1;durP1;ratioP1;P2;durP2;ratioP2
14346;SDS011;7257;52.158;9.968;2022-07-06T00:00:09;3.30;;;2.38;;
14346;SDS011;7257;52.158;9.968;2022-07-06T00:00:31;2.88;;;2.15;;
14346;SDS011;7257;52.158;9.968;2022-07-06T00:00:53;2.10;;;1.85;;
14346;SDS011;7257;52.158;9.968;2022-07-06T00:01:16;1.95;;;1.75;;
14346;SDS011;7257;52.158;9.968;2022-07-06T00:01:37;2.70;;;1.67;;
14346;SDS011;7257;52.158;9.968;2022-07-06T00:01:58;2.63;;;1.75;;
14346;SDS011;7257;52.158;9.968;2022-07-06T00:02:19;2.75;;;1.58;;
14346;SDS011;7257;52.158;9.968;2022-07-06T00:02:41;2.20;;;1.42;;
14346;SDS011;7257;52.158;9.968;2022-07-06T00:03:08;2.33;;;1.67;;
14346;SDS011;7257;52.158;9.968;2022-07-06T00:03:29;2.10;;;1.83;;
14346;SDS011;7257;52.158;9.968;2022-07-06T00:03:50;2.70;;;2.28;;
14346;SDS011;7257;52.158;9.968;2022-07-06T00:04:12;4.40;;;2.25;;
14346;SDS011;7257;52.158;9.968;2022-07-06T00:04:33;4.75;;;2.53;;
14346;SDS011;7257;52.158;9.968;2022-07-06T00:04:54;4.70;;;2.53;;
14346;SDS011;7257;52.158;9.968;2022-07-06T00:05:15;3.70;;;2.65;;
14346;SDS011;7257;52.158;9.968;2022-07-06T00:05:37;3.15;;;2.50;;
14346;SDS011;7257;52.158;9.968;2022-07-06T00:05:58;2.67;;;1.98;;
14346;SDS011;7257;52.158;9.968;2022-07-06T00:06:19;2.10;;;1.70;;
14346;SDS011;7257;52.158;9.968;2022-07-06T00:06:40;2.10;;;1.50;;
14346;SDS011;7257;52.158;9.968;2022-07-06T00:07:01;2.45;;;1.48;;
14346;SDS011;7257;52.158;9.968;2022-07-06T00:07:24;3.30;;;1.70;;
14346;SDS011;7257;52.158;9.968;2022-07-06T00:07:45;3.47;;;2.20;;
14346;SDS011;7257;52.158;9.968;2022-07-06T00:08:06;3.97;;;2.87;;
14346;SDS011;7257;52.158;9.968;2022-07-06T00:08:28;3.22;;;2.92;;
14346;SDS011;7257;52.158;9.968;2022-07-06T00:08:49;2.63;;;2.22;;
14346;SDS011;7257;52.158;9.968;2022-07-06T00:09:11;3.25;;;1.70;;
14346;SDS011;7257;52.158;9.968;2022-07-06T00:09:32;3.92;;;1.50;;
14346;SDS011;7257;52.158;9.968;2022-07-06T00:09:54;4.63;;;2.05;;
14346;SDS011;7257;52.158;9.968;2022-07-06T00:10:19;3.85;;;2.22;;
14346;SDS011;7257;52.158;9.968;2022-07-06T00:10:44;2.60;;;2.20;;
14346;SDS011;7257;52.158;9.968;2022-07-06T00:11:05;2.67;;;2.10;;
14346;SDS011;7257;52.158;9.968;2022-07-06T00:11:27;3.42;;;2.20;;
14346;SDS011;7257;52.158;9.968;2022-07-06T00:11:48;3.58;;;2.25;;
14346;SDS011;7257;52.158;9.968;2022-07-06T00:12:09;3.03;;;2.05;;
14346;SDS011;7257;52.158;9.968;2022-07-06T00:12:30;1.92;;;1.65;;
14346;SDS011;7257;52.158;9.968;2022-07-06T00:12:52;2.45;;;1.70;;
14346;SDS011;7257;52.158;9.968;2022-07-06T00:13:13;2.53;;;1.50;;
14346;SDS011;7257;52.158;9.968;2022-07-06T00:13:35;2.72;;;1.55;;
14346;SDS011;7257;52.158;9.968;2022-07-06T00:13:56;2.17;;;1.63;;
14346;SDS011;7257;52.158;9.968;2022-07-06T00:14:17;2.90;;;1.90;;
14346;SDS011;7257;52.158;9.968;2022-07-06T00:14:39;3.22;;;2.10;;
14346;SDS011;7257;52.158;9.968;2022-07-06T00:15:00;3.40;;;2.08;;
14346;SDS011;7257;52.158;9.968;2022-07-06T00:15:21;3.85;;;2.20;;
14346;SDS011;7257;52.158;9.968;2022-07-06T00:15:42;5.00;;;1.92;;
14346;SDS011;7257;52.158;9.968;2022-07-06T00:16:03;4.78;;;1.83;;
14346;SDS011;7257;52.158;9.968;2022-07-06T00:16:27;3.60;;;1.52;;
14346;SDS011;7257;52.158;9.968;2022-07-06T00:16:48;4.38;;;1.48;;
14346;SDS011;7257;52.158;9.968;2022-07-06T00:17:09;4.20;;;1.27;;
14346;SDS011;7257;52.158;9.968;2022-07-06T00:17:30;4.27;;;1.27;;
14346;SDS011;7257;52.158;9.968;2022-07-06T00:17:52;1.90;;;1.10;;
14346;SDS011;7257;52.158;9.968;2022-07-06T00:18:13;2.45;;;1.35;;
14346;SDS011;7257;52.158;9.968;2022-07-06T00:18:34;2.78;;;1.40;;
14346;SDS011;7257;52.158;9.968;2022-07-06T00:18:55;2.35;;;1.33;;
14346;SDS011;7257;52.158;9.968;2022-07-06T00:19:17;2.15;;;1.45;;
14346;SDS011;7257;52.158;9.968;2022-07-06T00:19:38;2.88;;;1.90;;
14346;SDS011;7257;52.158;9.968;2022-07-06T00:19:59;3.28;;;2.28;;
14346;SDS011;7257;52.158;9.968;2022-07-06T00:20:25;3.55;;;1.92;;
14346;SDS011;7257;52.158;9.968;2022-07-06T00:20:46;2.50;;;1.52;;
14346;SDS011;7257;52.158;9.968;2022-07-06T00:21:07;2.42;;;1.70;;
14346;SDS011;7257;52.158;9.968;2022-07-06T00:21:28;2.30;;;1.88;;
14346;SDS011;7257;52.158;9.968;2022-07-06T00:21:49;2.47;;;1.80;;
14346;SDS011;7257;52.158;9.968;2022-07-06T00:22:10;2.43;;;1.60;;
14346;SDS011;7257;52.158;9.968;2022-07-06T00:22:36;2.10;;;1.70;;
14346;SDS011;7257;52.158;9.968;2022-07-06T00:22:57;2.63;;;2.42;;
14346;SDS011;7257;52.158;9.968;2022-07-06T00:23:18;2.63;;;2.38;;
14346;SDS011;7257;52.158;9.968;2022-07-06T00:23:39;2.50;;;2.10;;
14346;SDS011;7257;52.158;9.968;2022-07-06T00:24:00;2.38;;;1.90;;
14346;SDS011;7257;52.158;9.968;2022-07-06T00:24:22;1.95;;;1.55;;
14346;SDS011;7257;52.158;9.968;2022-07-06T00:24:43;4.03;;;1.35;;
14346;SDS011;7257;52.158;9.968;2022-07-06T00:25:07;4.30;;;1.50;;
14346;SDS011;7257;52.158;9.968;2022-07-06T00:25:32;2.00;;;1.73;;
14346;SDS011;7257;52.158;9.968;2022-07-06T00:25:54;2.35;;;1.85;;
14346;SDS011;7257;52.158;9.968;2022-07-06T00:26:18;2.30;;;1.50;;
14346;SDS011;7257;52.158;9.968;2022-07-06T00:26:39;2.63;;;1.52;;
14346;SDS011;7257;52.158;9.968;2022-07-06T00:27:00;4.00;;;1.80;;
14346;SDS011;7257;52.158;9.968;2022-07-06T00:27:22;5.22;;;2.00;;
14346;SDS011;7257;52.158;9.968;2022-07-06T00:27:43;5.07;;;1.88;;
14346;SDS011;7257;52.158;9.968;2022-07-06T00:28:04;3.17;;;1.77;;
14346;SDS011;7257;52.158;9.968;2022-07-06T00:28:25;2.40;;;1.50;;
14346;SDS011;7257;52.158;9.968;2022-07-06T00:28:46;1.90;;;1.27;;
14346;SDS011;7257;52.158;9.968;2022-07-06T00:29:11;2.30;;;1.50;;
14346;SDS011;7257;52.158;9.968;2022-07-06T00:29:32;2.20;;;1.90;;
14346;SDS011;7257;52.158;9.968;2022-07-06T00:29:53;2.60;;;2.40;;
14346;SDS011;7257;52.158;9.968;2022-07-06T00:30:14;2.75;;;2.55;;
14346;SDS011;7257;52.158;9.968;2022-07-06T00:30:35;2.67;;;2.47;;
14346;SDS011;7257;52.158;9.968;2022-07-06T00:30:56;3.33;;;2.30;;
14346;SDS011;7257;52.158;9.968;2022-07-06T00:31:18;3.17;;;1.98;;
14346;SDS011;7257;52.158;9.968;2022-07-06T00:31:39;2.80;;;1.63;;
14346;SDS011;7257;52.158;9.968;2022-07-06T00:32:01;1.67;;;1.45;;
14346;SDS011;7257;52.158;9.968;2022-07-06T00:32:24;3.10;;;1.60;;
14346;SDS011;7257;52.158;9.968;2022-07-06T00:32:47;4.25;;;1.52;;
14346;SDS011;7257;52.158;9.968;2022-07-06T00:33:09;4.50;;;1.65;;
14346;SDS011;7257;52.158;9.968;2022-07-06T00:33:31;4.05;;;2.08;;
14346;SDS011;7257;52.158;9.968;2022-07-06T00:33:52;3.97;;;2.17;;
14346;SDS011;7257;52.158;9.968;2022-07-06T00:34:15;3.45;;;1.92;;
14346;SDS011;7257;52.158;9.968;2022-07-06T00:34:36;2.95;;;1.33;;
14346;SDS011;7257;52.158;9.968;2022-07-06T00:34:59;2.55;;;1.33;;
14346;SDS011;7257;52.158;9.968;2022-07-06T00:35:20;3.63;;;1.90;;
14346;SDS011;7257;52.158;9.968;2022-07-06T00:35:41;2.80;;;2.03;;
14346;SDS011;7257;52.158;9.968;2022-07-06T00:36:02;2.40;;;1.90;;
14346;SDS011;7257;52.158;9.968;2022-07-06T00:36:24;2.05;;;1.67;;
14346;SDS011;7257;52.158;9.968;2022-07-06T00:36:45;2.38;;;1.70;;
14346;SDS011;7257;52.158;9.968;2022-07-06T00:37:06;3.27;;;1.53;;
14346;SDS011;7257;52.158;9.968;2022-07-06T00:37:27;3.35;;;1.35;;
14346;SDS011;7257;52.158;9.968;2022-07-06T00:37:49;2.90;;;1.40;;
14346;SDS011;7257;52.158;9.968;2022-07-06T00:38:11;2.20;;;2.00;;
14346;SDS011;7257;52.158;9.968;2022-07-06T00:38:32;2.35;;;2.15;;
14346;SDS011;7257;52.158;9.968;2022-07-06T00:38:53;3.13;;;2.30;;
14346;SDS011;7257;52.158;9.968;2022-07-06T00:39:18;3.70;;;2.08;;
14346;SDS011;7257;52.158;9.968;2022-07-06T00:39:42;3.30;;;1.90;;
14346;SDS011;7257;52.158;9.968;2022-07-06T00:40:03;2.10;;;1.20;;
14346;SDS011;7257;52.158;9.968;2022-07-06T00:40:25;2.38;;;1.40;;
14346;SDS011;7257;52.158;9.968;2022-07-06T00:40:48;2.65;;;1.80;;
14346;SDS011;7257;52.158;9.968;2022-07-06T00:41:09;2.72;;;1.98;;
14346;SDS011;7257;52.158;9.968;2022-07-06T00:41:32;2.47;;;1.60;;
14346;SDS011;7257;52.158;9.968;2022-07-06T00:41:53;2.58;;;1.85;;
14346;SDS011;7257;52.158;9.968;2022-07-06T00:42:14;2.58;;;1.85;;
14346;SDS011;7257;52.158;9.968;2022-07-06T00:42:39;2.28;;;2.08;;
14346;SDS011;7257;52.158;9.968;2022-07-06T00:43:01;2.10;;;1.88;;
14346;SDS011;7257;52.158;9.968;2022-07-06T00:43:22;2.25;;;2.05;;
14346;SDS011;7257;52.158;9.968;2022-07-06T00:43:46;2.85;;;2.58;;
14346;SDS011;7257;52.158;9.968;2022-07-06T00:44:08;2.42;;;2.22;;
14346;SDS011;7257;52.158;9.968;2022-07-06T00:44:30;2.63;;;2.30;;
14346;SDS011;7257;52.158;9.968;2022-07-06T00:44:55;2.30;;;2.10;;
14346;SDS011;7257;52.158;9.968;2022-07-06T00:45:17;1.73;;;1.63;;
14346;SDS011;7257;52.158;9.968;2022-07-06T00:45:38;1.90;;;1.60;;
14346;SDS011;7257;52.158;9.968;2022-07-06T00:46:00;3.50;;;1.80;;
14346;SDS011;7257;52.158;9.968;2022-07-06T00:46:22;4.07;;;2.17;;
14346;SDS011;7257;52.158;9.968;2022-07-06T00:46:47;3.80;;;2.28;;
14346;SDS011;7257;52.158;9.968;2022-07-06T00:47:08;3.05;;;2.03;;
14346;SDS011;7257;52.158;9.968;2022-07-06T00:47:30;3.22;;;2.08;;
14346;SDS011;7257;52.158;9.968;2022-07-06T00:47:51;3.97;;;2.47;;
14346;SDS011;7257;52.158;9.968;2022-07-06T00:48:12;3.17;;;2.38;;
14346;SDS011;7257;52.158;9.968;2022-07-06T00:48:33;3.25;;;2.70;;
14346;SDS011;7257;52.158;9.968;2022-07-06T00:48:54;2.97;;;2.65;;
14346;SDS011;7257;52.158;9.968;2022-07-06T00:49:16;2.97;;;2.67;;
14346;SDS011;7257;52.158;9.968;2022-07-06T00:49:52;2.80;;;2.50;;
14346;SDS011;7257;52.158;9.968;2022-07-06T00:50:32;2.25;;;1.77;;
14346;SDS011;7257;52.158;9.968;2022-07-06T00:50:54;3.05;;;2.20;;
14346;SDS011;7257;52.158;9.968;2022-07-06T00:51:15;3.42;;;2.50;;
14346;SDS011;7257;52.158;9.968;2022-07-06T00:51:37;3.13;;;2.58;;
14346;SDS011;7257;52.158;9.968;2022-07-06T00:51:58;3.13;;;2.17;;
14346;SDS011;7257;52.158;9.968;2022-07-06T00:52:24;2.90;;;1.80;;
14346;SDS011;7257;52.158;9.968;2022-07-06T00:52:45;3.30;;;2.00;;
14346;SDS011;7257;52.158;9.968;2022-07-06T00:53:09;1.92;;;1.67;;
14346;SDS011;7257;52.158;9.968;2022-07-06T00:53:30;2.60;;;1.80;;
14346;SDS011;7257;52.158;9.968;2022-07-06T00:53:51;3.42;;;1.98;;
14346;SDS011;7257;52.158;9.968;2022-07-06T00:54:13;3.70;;;2.15;;
14346;SDS011;7257;52.158;9.968;2022-07-06T00:54:35;2.50;;;1.85;;
14346;SDS011;7257;52.158;9.968;2022-07-06T00:54:57;1.88;;;1.42;;
14346;SDS011;7257;52.158;9.968;2022-07-06T00:55:19;2.25;;;1.73;;
14346;SDS011;7257;52.158;9.968;2022-07-06T00:55:44;3.65;;;1.90;;
14346;SDS011;7257;52.158;9.968;2022-07-06T00:56:08;3.00;;;1.80;;
14346;SDS011;7257;52.158;9.968;2022-07-06T00:56:33;3.50;;;2.30;;
14346;SDS011;7257;52.158;9.968;2022-07-06T00:56:55;2.40;;;2.20;;
14346;SDS011;7257;52.158;9.968;2022-07-06T00:57:16;2.33;;;1.75;;
14346;SDS011;7257;52.158;9.968;2022-07-06T00:57:38;2.00;;;1.75;;
14346;SDS011;7257;52.158;9.968;2022-07-06T00:58:05;2.10;;;1.77;;
14346;SDS011;7257;52.158;9.968;2022-07-06T00:58:26;2.15;;;1.90;;
14346;SDS011;7257;52.158;9.968;2022-07-06T00:58:47;2.80;;;2.20;;
14346;SDS011;7257;52.158;9.968;2022-07-06T00:59:09;3.67;;;2.50;;
14346;SDS011;7257;52.158;9.968;2022-07-06T00:59:33;3.65;;;2.47;;
14346;SDS011;7257;52.158;9.968;2022-07-06T00:59:55;2.97;;;1.92;;
14346;SDS011;7257;52.158;9.968;2022-07-06T01:00:17;3.28;;;1.80;;
14346;SDS011;7257;52.158;9.968;2022-07-06T01:00:39;3.47;;;1.67;;
14346;SDS011;7257;52.158;9.968;2022-07-06T01:01:04;3.83;;;2.03;;
14346;SDS011;7257;52.158;9.968;2022-07-06T01:01:25;2.10;;;1.85;;
14346;SDS011;7257;52.158;9.968;2022-07-06T01:01:46;1.80;;;1.45;;
14346;SDS011;7257;52.158;9.968;2022-07-06T01:02:11;1.67;;;1.33;;
14346;SDS011;7257;52.158;9.968;2022-07-06T01:02:35;2.65;;;1.67;;
14346;SDS011;7257;52.158;9.968;2022-07-06T01:02:58;3.15;;;2.00;;
14346;SDS011;7257;52.158;9.968;2022-07-06T01:03:19;2.92;;;1.73;;
14346;SDS011;7257;52.158;9.968;2022-07-06T01:03:40;1.80;;;1.42;;
14346;SDS011;7257;52.158;9.968;2022-07-06T01:04:02;1.77;;;1.42;;
14346;SDS011;7257;52.158;9.968;2022-07-06T01:04:23;2.60;;;1.80;;
14346;SDS011;7257;52.158;9.968;2022-07-06T01:04:46;3.15;;;2.15;;
14346;SDS011;7257;52.158;9.968;2022-07-06T01:05:10;3.88;;;2.20;;
14346;SDS011;7257;52.158;9.968;2022-07-06T01:05:33;3.22;;;2.10;;
14346;SDS011;7257;52.158;9.968;2022-07-06T01:05:55;3.03;;;2.08;;
14346;SDS011;7257;52.158;9.968;2022-07-06T01:06:16;2.70;;;2.22;;
14346;SDS011;7257;52.158;9.968;2022-07-06T01:06:37;3.47;;;1.92;;
14346;SDS011;7257;52.158;9.968;2022-07-06T01:07:01;3.90;;;1.58;;
14346;SDS011;7257;52.158;9.968;2022-07-06T01:07:22;3.42;;;1.50;;
14346;SDS011;7257;52.158;9.968;2022-07-06T01:07:44;2.42;;;1.25;;
14346;SDS011;7257;52.158;9.968;2022-07-06T01:08:08;2.60;;;1.30;;
14346;SDS011;7257;52.158;9.968;2022-07-06T01:08:30;2.60;;;1.80;;
14346;SDS011;7257;52.158;9.968;2022-07-06T01:08:52;2.45;;;1.65;;
14346;SDS011;7257;52.158;9.968;2022-07-06T01:09:14;2.15;;;1.23;;
14346;SDS011;7257;52.158;9.968;2022-07-06T01:09:36;3.35;;;1.50;;
14346;SDS011;7257;52.158;9.968;2022-07-06T01:09:57;3.90;;;2.30;;
14346;SDS011;7257;52.158;9.968;2022-07-06T01:10:19;3.20;;;2.15;;
14346;SDS011;7257;52.158;9.968;2022-07-06T01:10:41;3.60;;;1.65;;
14346;SDS011;7257;52.158;9.968;2022-07-06T01:11:04;4.05;;;1.70;;
14346;SDS011;7257;52.158;9.968;2022-07-06T01:11:28;3.42;;;1.35;;
14346;SDS011;7257;52.158;9.968;2022-07-06T01:11:50;2.00;;;1.27;;
14346;SDS011;7257;52.158;9.968;2022-07-06T01:12:14;1.50;;;1.40;;
14346;SDS011;7257;52.158;9.968;2022-07-06T01:12:35;2.20;;;1.73;;
14346;SDS011;7257;52.158;9.968;2022-07-06T01:12:56;2.75;;;2.20;;
14346;SDS011;7257;52.158;9.968;2022-07-06T01:13:17;3.70;;;2.22;;
14346;SDS011;7257;52.158;9.968;2022-07-06T01:13:42;4.20;;;2.10;;
14346;SDS011;7257;52.158;9.968;2022-07-06T01:14:04;3.33;;;2.00;;
14346;SDS011;7257;52.158;9.968;2022-07-06T01:14:25;4.10;;;1.60;;
14346;SDS011;7257;52.158;9.968;2022-07-06T01:14:46;3.50;;;1.40;;
14346;SDS011;7257;52.158;9.968;2022-07-06T01:15:09;3.50;;;2.00;;
14346;SDS011;7257;52.158;9.968;2022-07-06T01:15:34;2.78;;;2.53;;
14346;SDS011;7257;52.158;9.968;2022-07-06T01:15:55;3.58;;;2.22;;
14346;SDS011;7257;52.158;9.968;2022-07-06T01:16:18;3.63;;;2.03;;
14346;SDS011;7257;52.158;9.968;2022-07-06T01:16:39;4.07;;;2.08;;
14346;SDS011;7257;52.158;9.968;2022-07-06T01:17:00;2.63;;;1.63;;
14346;SDS011;7257;52.158;9.968;2022-07-06T01:17:22;2.90;;;1.45;;
14346;SDS011;7257;52.158;9.968;2022-07-06T01:17:45;2.30;;;1.50;;
14346;SDS011;7257;52.158;9.968;2022-07-06T01:18:06;2.38;;;1.65;;
14346;SDS011;7257;52.158;9.968;2022-07-06T01:18:30;2.80;;;1.60;;
14346;SDS011;7257;52.158;9.968;2022-07-06T01:18:52;8.10;;;1.52;;
14346;SDS011;7257;52.158;9.968;2022-07-06T01:19:14;8.95;;;1.75;;
14346;SDS011;7257;52.158;9.968;2022-07-06T01:19:35;4.85;;;2.13;;
14346;SDS011;7257;52.158;9.968;2022-07-06T01:19:56;3.45;;;2.47;;
14346;SDS011;7257;52.158;9.968;2022-07-06T01:20:18;3.15;;;2.85;;
14346;SDS011;7257;52.158;9.968;2022-07-06T01:20:43;2.38;;;2.17;;
14346;SDS011;7257;52.158;9.968;2022-07-06T01:21:06;1.80;;;1.70;;
14346;SDS011;7257;52.158;9.968;2022-07-06T01:21:28;2.15;;;1.70;;
14346;SDS011;7257;52.158;9.968;2022-07-06T01:21:50;3.33;;;2.15;;
14346;SDS011;7257;52.158;9.968;2022-07-06T01:22:11;3.75;;;2.83;;
14346;SDS011;7257;52.158;9.968;2022-07-06T01:22:34;3.25;;;2.75;;
14346;SDS011;7257;52.158;9.968;2022-07-06T01:22:58;3.03;;;2.35;;
14346;SDS011;7257;52.158;9.968;2022-07-06T01:23:19;3.17;;;2.10;;
14346;SDS011;7257;52.158;9.968;2022-07-06T01:23:41;2.75;;;2.42;;
14346;SDS011;7257;52.158;9.968;2022-07-06T01:24:03;2.67;;;2.10;;
14346;SDS011;7257;52.158;9.968;2022-07-06T01:24:25;2.47;;;1.73;;
14346;SDS011;7257;52.158;9.968;2022-07-06T01:24:47;2.58;;;1.75;;
14346;SDS011;7257;52.158;9.968;2022-07-06T01:25:08;2.03;;;1.83;;
14346;SDS011;7257;52.158;9.968;2022-07-06T01:25:30;3.03;;;1.80;;
14346;SDS011;7257;52.158;9.968;2022-07-06T01:25:54;3.92;;;1.55;;
14346;SDS011;7257;52.158;9.968;2022-07-06T01:26:16;4.20;;;1.40;;
14346;SDS011;7257;52.158;9.968;2022-07-06T01:26:39;3.40;;;1.50;;
14346;SDS011;7257;52.158;9.968;2022-07-06T01:27:00;3.42;;;1.50;;
14346;SDS011;7257;52.158;9.968;2022-07-06T01:27:22;2.95;;;1.38;;
14346;SDS011;7257;52.158;9.968;2022-07-06T01:27:43;1.63;;;1.30;;
14346;SDS011;7257;52.158;9.968;2022-07-06T01:28:04;1.63;;;1.38;;
14346;SDS011;7257;52.158;9.968;2022-07-06T01:28:25;1.90;;;1.33;;
14346;SDS011;7257;52.158;9.968;2022-07-06T01:28:47;1.70;;;1.30;;
14346;SDS011;7257;52.158;9.968;2022-07-06T01:29:10;1.83;;;1.63;;
14346;SDS011;7257;52.158;9.968;2022-07-06T01:29:31;2.28;;;1.98;;
14346;SDS011;7257;52.158;9.968;2022-07-06T01:29:52;3.65;;;2.22;;
14346;SDS011;7257;52.158;9.968;2022-07-06T01:30:14;3.95;;;2.58;;
14346;SDS011;7257;52.158;9.968;2022-07-06T01:30:37;3.70;;;2.30;;
14346;SDS011;7257;52.158;9.968;2022-07-06T01:30:58;2.47;;;2.15;;
14346;SDS011;7257;52.158;9.968;2022-07-06T01:31:19;2.97;;;2.20;;
14346;SDS011;7257;52.158;9.968;2022-07-06T01:31:46;3.25;;;2.00;;
14346;SDS011;7257;52.158;9.968;2022-07-06T01:32:07;3.20;;;1.80;;
14346;SDS011;7257;52.158;9.968;2022-07-06T01:32:29;3.10;;;2.03;;
14346;SDS011;7257;52.158;9.968;2022-07-06T01:32:50;2.67;;;2.13;;
14346;SDS011;7257;52.158;9.968;2022-07-06T01:33:11;4.03;;;1.80;;
14346;SDS011;7257;52.158;9.968;2022-07-06T01:33:33;3.35;;;1.33;;
14346;SDS011;7257;52.158;9.968;2022-07-06T01:33:55;3.45;;;1.15;;
14346;SDS011;7257;52.158;9.968;2022-07-06T01:34:17;1.63;;;1.20;;
14346;SDS011;7257;52.158;9.968;2022-07-06T01:34:38;1.77;;;1.40;;
14346;SDS011;7257;52.158;9.968;2022-07-06T01:35:02;2.10;;;1.83;;
14346;SDS011;7257;52.158;9.968;2022-07-06T01:35:26;2.83;;;2.13;;
14346;SDS011;7257;52.158;9.968;2022-07-06T01:35:49;2.78;;;2.05;;
14346;SDS011;7257;52.158;9.968;2022-07-06T01:36:12;3.10;;;2.80;;
14346;SDS011;7257;52.158;9.968;2022-07-06T01:36:34;2.67;;;2.47;;
14346;SDS011;7257;52.158;9.968;2022-07-06T01:36:57;2.17;;;1.95;;
14346;SDS011;7257;52.158;9.968;2022-07-06T01:37:18;2.10;;;1.90;;
14346;SDS011;7257;52.158;9.968;2022-07-06T01:37:39;2.33;;;1.67;;
14346;SDS011;7257;52.158;9.968;2022-07-06T01:38:01;2.33;;;1.73;;
14346;SDS011;7257;52.158;9.968;2022-07-06T01:38:22;2.30;;;1.77;;
14346;SDS011;7257;52.158;9.968;2022-07-06T01:38:46;2.20;;;1.92;;
14346;SDS011;7257;52.158;9.968;2022-07-06T01:39:08;2.10;;;1.63;;
14346;SDS011;7257;52.158;9.968;2022-07-06T01:39:30;2.75;;;1.50;;
14346;SDS011;7257;52.158;9.968;2022-07-06T01:39:51;2.67;;;1.45;;
14346;SDS011;7257;52.158;9.968;2022-07-06T01:40:12;3.28;;;1.95;;
14346;SDS011;7257;52.158;9.968;2022-07-06T01:40:33;2.72;;;2.17;;
14346;SDS011;7257;52.158;9.968;2022-07-06T01:40:55;3.47;;;2.22;;
14346;SDS011;7257;52.158;9.968;2022-07-06T01:41:16;3.95;;;2.03;;
14346;SDS011;7257;52.158;9.968;2022-07-06T01:41:38;3.00;;;1.77;;
14346;SDS011;7257;52.158;9.968;2022-07-06T01:41:59;2.13;;;1.33;;
14346;SDS011;7257;52.158;9.968;2022-07-06T01:42:20;1.75;;;1.20;;
14346;SDS011;7257;52.158;9.968;2022-07-06T01:42:42;1.90;;;1.40;;
14346;SDS011;7257;52.158;9.968;2022-07-06T01:43:03;2.10;;;1.90;;
14346;SDS011;7257;52.158;9.968;2022-07-06T01:43:24;2.28;;;2.08;;
14346;SDS011;7257;52.158;9.968;2022-07-06T01:43:45;2.28;;;2.08;;
14346;SDS011;7257;52.158;9.968;2022-07-06T01:44:09;3.40;;;2.13;;
14346;SDS011;7257;52.158;9.968;2022-07-06T01:44:30;3.70;;;2.35;;
14346;SDS011;7257;52.158;9.968;2022-07-06T01:44:54;3.60;;;2.28;;
14346;SDS011;7257;52.158;9.968;2022-07-06T01:45:15;2.53;;;2.33;;
14346;SDS011;7257;52.158;9.968;2022-07-06T01:45:37;2.70;;;2.50;;
14346;SDS011;7257;52.158;9.968;2022-07-06T01:45:58;2.50;;;2.30;;
14346;SDS011;7257;52.158;9.968;2022-07-06T01:46:19;2.28;;;1.90;;
14346;SDS011;7257;52.158;9.968;2022-07-06T01:46:42;1.73;;;1.35;;
14346;SDS011;7257;52.158;9.968;2022-07-06T01:47:04;2.00;;;1.80;;
14346;SDS011;7257;52.158;9.968;2022-07-06T01:47:25;1.98;;;1.77;;
14346;SDS011;7257;52.158;9.968;2022-07-06T01:47:46;1.92;;;1.70;;
14346;SDS011;7257;52.158;9.968;2022-07-06T01:48:07;1.70;;;1.40;;
14346;SDS011;7257;52.158;9.968;2022-07-06T01:48:29;2.10;;;1.17;;
14346;SDS011;7257;52.158;9.968;2022-07-06T01:48:51;2.10;;;1.20;;
14346;SDS011;7257;52.158;9.968;2022-07-06T01:49:12;2.25;;;1.40;;
14346;SDS011;7257;52.158;9.968;2022-07-06T01:49:33;2.17;;;1.70;;
14346;SDS011;7257;52.158;9.968;2022-07-06T01:49:54;2.42;;;1.77;;
14346;SDS011;7257;52.158;9.968;2022-07-06T01:50:19;2.33;;;1.73;;
14346;SDS011;7257;52.158;9.968;2022-07-06T01:50:41;2.17;;;1.73;;
14346;SDS011;7257;52.158;9.968;2022-07-06T01:51:02;2.03;;;1.83;;
14346;SDS011;7257;52.158;9.968;2022-07-06T01:51:26;1.70;;;1.60;;
14346;SDS011;7257;52.158;9.968;2022-07-06T01:51:48;1.75;;;1.65;;
14346;SDS011;7257;52.158;9.968;2022-07-06T01:52:08;1.77;;;1.67;;
14346;SDS011;7257;52.158;9.968;2022-07-06T01:52:30;2.20;;;2.00;;
14346;SDS011;7257;52.158;9.968;2022-07-06T01:52:51;2.35;;;2.13;;
14346;SDS011;7257;52.158;9.968;2022-07-06T01:53:13;2.90;;;1.95;;
14346;SDS011;7257;52.158;9.968;2022-07-06T01:53:34;2.85;;;1.58;;
14346;SDS011;7257;52.158;9.968;2022-07-06T01:53:55;2.25;;;1.35;;
14346;SDS011;7257;52.158;9.968;2022-07-06T01:54:17;2.80;;;1.40;;
14346;SDS011;7257;52.158;9.968;2022-07-06T01:54:38;2.83;;;1.63;;
14346;SDS011;7257;52.158;9.968;2022-07-06T01:54:59;3.30;;;2.10;;
14346;SDS011;7257;52.158;9.968;2022-07-06T01:55:21;2.70;;;2.50;;
14346;SDS011;7257;52.158;9.968;2022-07-06T01:55:42;2.80;;;2.60;;
14346;SDS011;7257;52.158;9.968;2022-07-06T01:56:04;2.40;;;2.20;;
14346;SDS011;7257;52.158;9.968;2022-07-06T01:56:28;2.25;;;1.95;;
14346;SDS011;7257;52.158;9.968;2022-07-06T01:56:49;4.18;;;1.52;;
14346;SDS011;7257;52.158;9.968;2022-07-06T01:57:14;4.10;;;1.48;;
14346;SDS011;7257;52.158;9.968;2022-07-06T01:57:38;3.40;;;1.50;;
14346;SDS011;7257;52.158;9.968;2022-07-06T01:58:04;2.20;;;1.92;;
14346;SDS011;7257;52.158;9.968;2022-07-06T01:58:25;2.10;;;1.70;;
14346;SDS011;7257;52.158;9.968;2022-07-06T01:58:47;2.92;;;1.42;;
14346;SDS011;7257;52.158;9.968;2022-07-06T01:59:08;2.83;;;1.60;;
14346;SDS011;7257;52.158;9.968;2022-07-06T01:59:29;2.90;;;2.00;;
14346;SDS011;7257;52.158;9.968;2022-07-06T01:59:50;2.97;;;2.28;;
14346;SDS011;7257;52.158;9.968;2022-07-06T02:00:13;2.95;;;2.33;;
14346;SDS011;7257;52.158;9.968;2022-07-06T02:00:37;2.67;;;1.85;;
14346;SDS011;7257;52.158;9.968;2022-07-06T02:00:58;1.30;;;1.10;;
14346;SDS011;7257;52.158;9.968;2022-07-06T02:01:19;1.30;;;1.10;;
14346;SDS011;7257;52.158;9.968;2022-07-06T02:01:41;2.88;;;1.60;;
14346;SDS011;7257;52.158;9.968;2022-07-06T02:02:04;3.70;;;2.10;;
14346;SDS011;7257;52.158;9.968;2022-07-06T02:02:25;5.13;;;2.05;;
14346;SDS011;7257;52.158;9.968;2022-07-06T02:02:46;3.35;;;1.73;;
14346;SDS011;7257;52.158;9.968;2022-07-06T02:03:08;2.63;;;1.75;;
14346;SDS011;7257;52.158;9.968;2022-07-06T02:03:29;2.38;;;2.05;;
14346;SDS011;7257;52.158;9.968;2022-07-06T02:03:50;2.67;;;2.38;;
14346;SDS011;7257;52.158;9.968;2022-07-06T02:04:11;2.78;;;2.58;;
14346;SDS011;7257;52.158;9.968;2022-07-06T02:04:33;2.85;;;2.65;;
14346;SDS011;7257;52.158;9.968;2022-07-06T02:04:54;2.67;;;2.25;;
14346;SDS011;7257;52.158;9.968;2022-07-06T02:05:15;3.30;;;1.95;;
14346;SDS011;7257;52.158;9.968;2022-07-06T02:05:36;3.00;;;1.65;;
14346;SDS011;7257;52.158;9.968;2022-07-06T02:06:00;2.67;;;1.55;;
14346;SDS011;7257;52.158;9.968;2022-07-06T02:06:21;2.13;;;1.92;;
14346;SDS011;7257;52.158;9.968;2022-07-06T02:06:42;2.28;;;2.03;;
14346;SDS011;7257;52.158;9.968;2022-07-06T02:07:03;2.45;;;1.70;;
14346;SDS011;7257;52.158;9.968;2022-07-06T02:07:24;2.10;;;1.27;;
14346;SDS011;7257;52.158;9.968;2022-07-06T02:07:48;1.58;;;1.30;;
14346;SDS011;7257;52.158;9.968;2022-07-06T02:08:09;1.50;;;1.30;;
14346;SDS011;7257;52.158;9.968;2022-07-06T02:08:31;1.50;;;1.27;;
14346;SDS011;7257;52.158;9.968;2022-07-06T02:08:53;1.95;;;1.40;;
14346;SDS011;7257;52.158;9.968;2022-07-06T02:09:14;2.00;;;1.80;;
14346;SDS011;7257;52.158;9.968;2022-07-06T02:09:36;2.47;;;2.28;;
14346;SDS011;7257;52.158;9.968;2022-07-06T02:09:56;2.30;;;2.10;;
14346;SDS011;7257;52.158;9.968;2022-07-06T02:10:17;2.35;;;2.10;;
14346;SDS011;7257;52.158;9.968;2022-07-06T02:10:39;2.28;;;1.98;;
14346;SDS011;7257;52.158;9.968;2022-07-06T02:11:00;2.13;;;1.85;;
14346;SDS011;7257;52.158;9.968;2022-07-06T02:11:22;2.85;;;1.80;;
14346;SDS011;7257;52.158;9.968;2022-07-06T02:11:43;2.97;;;2.10;;
14346;SDS011;7257;52.158;9.968;2022-07-06T02:12:06;2.88;;;2.38;;
14346;SDS011;7257;52.158;9.968;2022-07-06T02:12:27;2.10;;;1.90;;
14346;SDS011;7257;52.158;9.968;2022-07-06T02:12:48;1.95;;;1.65;;
14346;SDS011;7257;52.158;9.968;2022-07-06T02:13:10;1.83;;;1.35;;
14346;SDS011;7257;52.158;9.968;2022-07-06T02:13:31;1.87;;;1.30;;
14346;SDS011;7257;52.158;9.968;2022-07-06T02:13:52;2.40;;;1.60;;
14346;SDS011;7257;52.158;9.968;2022-07-06T02:14:13;2.88;;;1.90;;
14346;SDS011;7257;52.158;9.968;2022-07-06T02:14:34;3.40;;;2.17;;